Timeline UpdatesTrip UpdatesNews PostsPvt PostsTravel TipsAdmin PostsConv PostsFollowed PostsChat RequestsBlog PostsPNR Posts

Disclaimer
Search
 
 
Tue Sep 2, 2014 17:21:22 ISTHomeTrainsΣChainsAtlasPNRForumGalleryNewsFAQTripsMembersLoginFeedback
No Recent News for this Train
Other Trains in the News **new
Latest...
Temporary Augmentation of 1 SL coach from 5/4/14-28/6/14 #1043381
Wed Apr 02, 2014 (11:23PM)
⇐ Return Journey: Train# 15905

15906/Dibrugarh - Kanyakumari Vivek Express

Time-Table HAS CHANGED.
Today (12:42AM)
Change Departure Station:
Change Arrival Station:
Post a Train Travel TipPost a Train Travel Tip **new
Post a Comment/Question/Picture/VideoPost a Comment/Question/Picture/Video
Inaugural Run
Sat Nov 26, 2011
Pantry/Catering
✓ Pantry Car Avbl
✓ Catering Avbl
Loco/Rake Reversals
DGR/Durgapur (5); VSKP/Visakhapatnam Junction (8);
RSA - Rake Sharing
Rake/Coach Composition
LOCO-SLR-GS-GS-GS-B2-B1-A1-S9-PC-S8-S7-S6-S5-S4-S3-S2-S1-GS-GS-GS-SLR
Loco
Official Loco Links:- DBRG - DGR :- WDM-3A /3D DGR...
Read more...
- VSKP :- WAM-4/WAP-4 VSKP - CAPE :- WAM-4/WAP-4
News    PNR    Forum    Time-Table    Availability    Fare Chart    Map    Arr/Dep History    Trips    Gallery    ΣChains    X/O    Timeline    
Travel Time: 82h 5m    55 halts    Distance: 4236 km    Avg Speed: 51 km/hr
Type: Mail/Express
Zone: NFR/Northeast Frontier
Departs @ 23:45
Platform# 1
      S
Dibrugarh/DBRG 
Arrives @ 09:50 +4 nights
Platform# ???
   W   
Kanniyakumari/CAPE 

55 halts. 680 intermediate Stations between Dibrugarh and Kanniyakumari

Show ALL intermediate Stations  Show Old Time-Table

#CodeStation NameX/OArrivesAvgDepartsAvgHaltPFDay#KmSpeedElevZoneAddress
1DBRG»Dibrugarh (4)»  -23:45-110.042108mNFRDibrugarh 786003, Assam
2NTSKNew Tinsukia Junction (3)  00:45-00:55-10m--242.057124mNFRDist: Tinsukia, Assam
3MXNMariani Junction (4)  03:45 03:40-03:55 03:50-10m12198.743117mNFRDist. Jorhat Pin-785634, Assam
4FKGFurkating Junction (2)  04:43-04:45-2m--2236.750 NFRK B Rd, Assam
5DMVDimapur (3)  05:55 06:10-06:00 06:15-5m--2306.957153mNFRDimapur, Nagaland
6DPUDiphu (2)  06:36 06:54-06:37 06:55-1m--2344.235180mNFRDiphu, Assam
7LMGLumding Junction (5)  08:05 07:50-08:10 07:55-5m--2376.359142mNFRLumding, Assam
8JIDJagi Road (2)  10:41 10:01-10:42 10:02-1m--2500.03962mNFRJagiroad, Assam
9GHYGuwahati (7)  12:00 11:30-12:15 11:45-15m--2557.17360mNFRGuwahati, Assam
10GLPTGoalpara Town (2)  14:02 13:33-14:04 13:35-2m--2687.73649mNFRGoalpara Town Rail Station, Assam
11NBQNew Bongaigaon Junction (4)X  15:45 15:00-15:50 15:10-5 10m--2739.16258mNFR783381., Assam
12KOJKokrajhar (3)  16:19 15:37-16:20 15:38-1m--2767.07346mNFR03661-270618, Assam
13APDJAlipur Duar Junction (3)  17:30 16:45-17:35 16:50-5m--2848.23453mNFRDist - Alipurduar, West Bengal
14NJPNew Jalpaiguri Junction (8)X  21:45-22:00-15m321016.679114mNFRCity-Siliguri . Dist-Jalpaiguri, West Bengal
15KNEKishanGanj (3)X  23:06-23:08-2m--21104.05252mNFRKishanganj, Bihar
16MLDTMalda Town (5)X  02:00-02:15-15m--31252.15030mERDist - Malda, West Bengal
17RPHRampurhat (3)  04:45-04:50-5m131375.94341mERDIST - Birbhum, West Bengal
18DGRDurgapur (5)XO07:35-08:00-25m131494.14671mERDurgapur, West Bengal
19ASNAsansol Junction (7)  08:55-09:05-10m431536.645113mERDist - bardhaman, West Bengal
20ADRAAdra Junction (4)  10:00-10:05-5m431578.071190mSERDist - Puruliya, West Bengal
21BQABankura Junction (3)X  10:50-10:52-2m--31630.99089mSERDist - Bankura, West Bengal
22MDNMidnapore (3)  11:58 12:00-12:00 12:02-2m--31733.51553mSERMedinipur, West Bengal
23HIJHijli (2)  12:56-12:57-1m331747.28548mSERdist - paschim medinipur, West Bengal
24BLSBalasore (4)  14:16-14:18-2m331859.46919mSERBalasore, Odisha
25BHCBhadrak (4)  15:12-15:14-2m--31921.98823mECoRBhadrak, Odisha
26CTCCuttack Junction (5)  16:31 16:33-16:33 16:35-2m--32037.54828mECoRCuttack, Odisha
27BBSBhubaneswar (4)X  17:13 17:10-17:18 17:15-5m432065.44540mECoRBhubaneshwar, Odisha
28KURKhurda Road Junction (7)X  17:40-17:55-15m--32084.38025mECoRKhordha, Odisha
29BAMBrahmapur (3)X  19:50 19:45-19:55 19:50-5m232231.42727mECoRBerhampur, Odisha
30PSAPalasa (3)X  22:33-22:35-2m--32305.88331mECoRKasibugga, Andhra Pradesh
31CHESrikakulam Road (4)  23:32 23:28-23:34 23:30-2m--32378.87634mECoRsrikakulam road ph .no. 08942-287222, Andhra Pradesh
32VZMVizianagaram Junction (5)X  00:30 00:25-00:32 00:27-2m--42448.35863mECoRVizianagaram, Andhra Pradesh
33VSKPVisakhapatnam Junction (8)X01:30-01:50-20m342509.53611mECoRVishakhapatnam 530001, Andhra Pradesh
34DVDDuvvada (4)  02:18 02:17-02:20 02:18-2 1m--42525.89246mECoRVishakhapatnam District, Andhra Pradesh
35SLOSamalkot Junction (3)  03:46 03:45-03:47-1 2m342659.16118mSCRSamalkot, Andhra Pradesh
36RJYRajahmundry (3)  04:36-04:38-2m142709.36723mSCRRajahmundry ph.no. 0883-2420541, Andhra Pradesh
37EEEluru (3)X  05:59-06:00-1m--42799.24519mSCREluru Ph.no. 08812 226401., Andhra Pradesh
38BZAVijayawada Junction (10)X  07:20-07:40-20m--42858.57724mSCRVijayawada 520001, Andhra Pradesh
39OGLOngole (3)  09:28-09:29-1m342996.810812mSCROngole, Andhra Pradesh
40NLRNellore (4)  10:34-10:35-1m343113.63421mSCRNellore, Andhra Pradesh
41RURenigunta Junction (5)X  14:10-14:20-10m--43235.469113mSCRChittoor District, Andhra Pradesh
42KPDKatpadi Junction (5)  16:08-16:10-2m143359.950213mSRVellore 632007, Tamil Nadu
43JTJJolarpettai Junction (5)X  17:50-17:55-5m--43443.772405mSRJolarpettai, Tamil Nadu
44SASalem Junction (6)  19:35-19:40-5m--43563.967283mSRSalem, Tamil Nadu
45EDErode Junction (4)  20:35-20:40-5m243625.370175mSRErode ph.no: 0424-2256111, Tamil Nadu
46TUPTiruppur (2)X  21:23-21:25-2m143675.547305mSRTiruppur. Ph:0421-2200450, Tamil Nadu
47CBECoimbatore Main Junction (6)X  22:30-22:35-5m--43726.038416mSRCoimbatore 641001, Tamil Nadu
48PGTPalakkad Junction (4)  00:02-00:05-3m--53781.37084mSRPalghat Tel: 0491 2555231, Kerala
49TCRThrissur (4)  01:07 01:10-01:10 01:13-3m153857.1736mSRThrissur Tel: 0487 2423150, Kerala
50AWYAluva (3)  02:03 01:58-02:05 02:00-2m153911.73412mSRPh: 0484-2624141, Kerala
51ERNErnakulam Town (North) (2)  02:35 02:30-02:40 02:35-5m253928.5609mSRTel: 0484 2395198, Kerala
52KTYMKottayam (3)  03:40 03:35-03:45 03:40-5m--53988.55615mSRTel: 0481 2563535, Kerala
53CNGRChengannur (3)  04:24 04:17-04:25 04:18-1m154023.3596mSRPh: 0479-2452340, Kerala
54QLNKollam Junction (6)  05:40 05:20-05:45 05:25-5m154084.34116mSRKollam 0474-2746194, Kerala
55TVCTrivandrum Central (5)X  07:05 07:00-07:15 07:10-10m154148.93312mSRThiruvananthapuram 695001, Kerala
56NCJNagercoil Junction (4)  09:25 09:20-09:30 09:25-5m--54220.03722mSRNagercoil-629002, Tamil Nadu
57CAPE•Kanniyakumari (3)•  10:00 09:50----54235.5-38mSRKanyakumari, Tamil Nadu
Scroll to Top
Scroll to Bottom